Time;durP1;ratioP1;P1;durP2;ratioP2;P2;SDS_P1;SDS_P2;PMS_P1;PMS_P2;Temp;Humidity;BMP_temperature;BMP_pressure;BME280_temperature;BME280_humidity;BME280_pressure;Samples;Min_cycle;Max_cycle;Signal;HPM_P1;HPM_P2
2024/04/17 00:01:46;;;;;;;17.38;3.13;;;;;;;5.24;100.00;100766.50;5378509;26;20003;-71
2024/04/17 00:04:12;;;;;;;18.75;3.00;;;;;;;5.29;100.00;100762.75;5408781;26;20058;-71
2024/04/17 00:06:38;;;;;;;9.90;2.55;;;;;;;5.37;100.00;100760.34;5407672;26;20010;-70
2024/04/17 00:09:04;;;;;;;19.02;3.75;;;;;;;5.21;100.00;100764.16;5379698;26;20458;-70
2024/04/17 00:11:30;;;;;;;22.83;3.60;;;;;;;5.21;100.00;100768.50;5443523;26;20075;-75
2024/04/17 00:13:56;;;;;;;18.17;3.05;;;;;;;5.24;100.00;100766.50;5402551;26;20007;-71
2024/04/17 00:16:22;;;;;;;21.58;3.33;;;;;;;5.11;100.00;100767.59;5433945;26;20060;-71
2024/04/17 00:18:48;;;;;;;15.95;3.65;;;;;;;5.07;100.00;100770.41;5434052;26;20493;-71
2024/04/17 00:21:14;;;;;;;19.88;2.78;;;;;;;5.02;100.00;100771.69;5405543;26;20772;-70
2024/04/17 00:23:40;;;;;;;26.27;4.28;;;;;;;4.97;100.00;100768.66;5409598;26;20003;-71
2024/04/17 00:26:06;;;;;;;15.02;2.80;;;;;;;4.97;100.00;100773.81;5435626;26;20002;-71
2024/04/17 00:28:32;;;;;;;27.48;4.45;;;;;;;5.00;100.00;100763.31;5404065;26;20014;-71
2024/04/17 00:30:58;;;;;;;17.52;2.72;;;;;;;4.94;100.00;100774.06;5399293;26;20007;-71
2024/04/17 00:33:25;;;;;;;17.50;2.85;;;;;;;4.91;100.00;100767.41;5435011;26;20795;-70
2024/04/17 00:35:51;;;;;;;25.83;3.50;;;;;;;4.88;100.00;100768.47;5434973;26;20003;-71
2024/04/17 00:38:17;;;;;;;20.63;2.70;;;;;;;4.82;100.00;100768.94;5401552;26;20027;-71
2024/04/17 00:40:43;;;;;;;15.38;2.90;;;;;;;4.83;100.00;100762.03;5437087;26;20003;-71
2024/04/17 00:43:09;;;;;;;16.10;2.72;;;;;;;4.80;100.00;100773.38;5438849;26;20017;-72
2024/04/17 00:45:38;;;;;;;15.57;2.65;;;;;;;4.75;100.00;100769.53;5427711;26;20462;-71
2024/04/17 00:48:08;;;;;;;25.77;4.47;;;;;;;4.71;100.00;100763.81;5433796;26;19999;-72
2024/04/17 00:50:35;;;;;;;13.13;2.85;;;;;;;4.67;100.00;100767.53;5432111;26;20087;-71
2024/04/17 00:53:03;;;;;;;12.43;2.65;;;;;;;4.59;100.00;100769.88;5435127;26;20051;-71
2024/04/17 00:55:32;;;;;;;23.98;3.60;;;;;;;4.56;100.00;100770.94;5433301;26;20006;-71
2024/04/17 00:58:00;;;;;;;14.32;2.63;;;;;;;4.54;100.00;100770.25;5409949;26;20485;-71
2024/04/17 01:00:26;;;;;;;17.17;3.05;;;;;;;4.54;100.00;100769.41;5400453;26;19996;-71
2024/04/17 01:02:52;;;;;;;13.32;2.83;;;;;;;4.57;100.00;100776.91;5411981;26;20022;-71
2024/04/17 01:05:18;;;;;;;16.42;2.78;;;;;;;4.51;100.00;100772.25;5433431;26;20030;-71
2024/04/17 01:07:44;;;;;;;14.85;4.38;;;;;;;4.49;100.00;100768.03;5442067;26;20075;-71
2024/04/17 01:10:10;;;;;;;18.42;2.80;;;;;;;4.45;100.00;100773.53;5435818;26;20087;-71
2024/04/17 01:12:36;;;;;;;13.75;3.20;;;;;;;4.38;100.00;100768.03;5404660;26;20011;-71
2024/04/17 01:15:09;;;;;;;17.58;2.65;;;;;;;4.36;100.00;100769.88;5438119;26;20022;-70
2024/04/17 01:17:38;;;;;;;;;;;;;;;4.35;100.00;100778.53;5433903;26;20039;-71
2024/04/17 01:20:05;;;;;;;17.25;2.55;;;;;;;4.37;100.00;100765.56;5437015;26;19933;-71
2024/04/17 01:22:31;;;;;;;15.57;3.53;;;;;;;4.33;100.00;100770.13;5437139;26;20042;-71
2024/04/17 01:24:57;;;;;;;14.80;3.40;;;;;;;4.29;100.00;100767.00;5407341;26;20007;-71
2024/04/17 01:27:23;;;;;;;12.10;2.80;;;;;;;4.24;100.00;100761.38;5437219;26;20011;-71
2024/04/17 01:29:49;;;;;;;11.55;2.75;;;;;;;4.20;100.00;100764.28;5434166;26;20007;-71
2024/04/17 01:32:17;;;;;;;14.10;3.92;;;;;;;4.18;100.00;100761.00;5435082;26;20011;-71
2024/04/17 01:34:43;;;;;;;13.23;3.20;;;;;;;4.13;100.00;100755.41;5437105;26;20011;-71
2024/04/17 01:37:09;;;;;;;16.42;4.45;;;;;;;4.12;100.00;100761.47;5435094;26;20022;-71
2024/04/17 01:39:35;;;;;;;10.75;3.42;;;;;;;4.07;100.00;100752.38;5405193;26;20019;-71
2024/04/17 01:42:01;;;;;;;14.80;3.63;;;;;;;4.06;100.00;100757.63;5402336;26;20018;-71
2024/04/17 01:44:27;;;;;;;15.70;3.58;;;;;;;4.03;100.00;100761.25;5437563;26;20025;-71
2024/04/17 01:46:52;;;;;;;15.88;3.50;;;;;;;4.00;100.00;100758.09;5408153;26;20216;-71
2024/04/17 01:49:18;;;;;;;9.77;3.42;;;;;;;3.99;100.00;100759.00;5435857;26;20081;-71
2024/04/17 01:51:44;;;;;;;18.38;3.50;;;;;;;3.96;100.00;100760.06;5405161;26;20022;-71
2024/04/17 01:54:10;;;;;;;16.17;2.75;;;;;;;3.94;100.00;100766.22;5439824;26;20003;-70
2024/04/17 01:56:36;;;;;;;13.80;3.95;;;;;;;3.92;100.00;100770.66;5407363;26;20018;-71
2024/04/17 01:59:02;;;;;;;12.10;3.13;;;;;;;3.91;100.00;100764.69;5403386;26;20457;-71
2024/04/17 02:01:28;;;;;;;17.98;4.45;;;;;;;3.88;100.00;100767.47;5445717;26;20047;-70
2024/04/17 02:03:54;;;;;;;15.63;4.13;;;;;;;3.85;100.00;100765.16;5446235;26;20023;-72
2024/04/17 02:06:21;;;;;;;18.15;4.20;;;;;;;3.82;100.00;100763.63;5440494;26;20010;-71
2024/04/17 02:08:47;;;;;;;14.30;4.22;;;;;;;3.79;100.00;100765.63;5409309;26;20230;-70
2024/04/17 02:11:13;;;;;;;12.52;3.47;;;;;;;3.78;100.00;100764.78;5437599;26;20026;-71
2024/04/17 02:13:39;;;;;;;12.98;3.50;;;;;;;3.76;100.00;100760.72;5436901;26;20014;-71
2024/04/17 02:16:06;;;;;;;11.43;2.85;;;;;;;3.71;100.00;100766.16;5434067;26;20027;-70
2024/04/17 02:18:33;;;;;;;10.52;3.50;;;;;;;3.68;100.00;100761.28;5432359;26;20003;-71
2024/04/17 02:21:01;;;;;;;17.08;3.83;;;;;;;3.67;100.00;100757.91;5399394;26;20011;-71
2024/04/17 02:23:28;;;;;;;19.67;4.15;;;;;;;3.67;100.00;100763.03;5440699;26;20057;-71
2024/04/17 02:25:55;;;;;;;20.48;4.50;;;;;;;3.65;100.00;100769.19;5431030;26;20011;-71
2024/04/17 02:28:21;;;;;;;13.23;3.83;;;;;;;3.61;100.00;100773.72;5438430;26;20012;-71
2024/04/17 02:30:47;;;;;;;11.00;3.42;;;;;;;3.58;100.00;100767.97;5408120;26;20015;-71
2024/04/17 02:33:13;;;;;;;14.20;3.55;;;;;;;3.56;100.00;100773.25;5441275;26;20023;-71
2024/04/17 02:35:39;;;;;;;15.18;3.25;;;;;;;3.55;100.00;100771.59;5440579;26;20016;-71
2024/04/17 02:38:05;;;;;;;16.13;4.07;;;;;;;3.53;100.00;100776.03;5413973;26;20489;-71
2024/04/17 02:40:31;;;;;;;10.38;3.65;;;;;;;3.54;100.00;100774.25;5409236;26;20024;-71
2024/04/17 02:42:57;;;;;;;15.23;4.03;;;;;;;3.52;100.00;100771.81;5441874;26;20361;-71
2024/04/17 02:45:23;;;;;;;18.33;4.50;;;;;;;3.49;100.00;100775.41;5435247;26;20006;-71
2024/04/17 02:47:49;;;;;;;19.13;4.22;;;;;;;3.48;100.00;100776.38;5435399;26;20007;-71
2024/04/17 02:50:15;;;;;;;10.70;3.75;;;;;;;3.46;100.00;100782.50;5441809;26;20085;-71
2024/04/17 02:52:41;;;;;;;15.68;4.07;;;;;;;3.43;100.00;100783.56;5445970;26;20006;-71
2024/04/17 02:55:07;;;;;;;13.02;3.85;;;;;;;3.40;100.00;100776.06;5436569;26;20002;-71
2024/04/17 02:57:33;;;;;;;14.10;4.30;;;;;;;3.39;100.00;100773.63;5441270;26;20096;-71
2024/04/17 02:59:59;;;;;;;13.27;3.92;;;;;;;3.37;100.00;100773.75;5412451;26;20007;-71
2024/04/17 03:02:25;;;;;;;17.77;4.95;;;;;;;3.36;100.00;100774.66;5415322;26;20014;-71
2024/04/17 03:04:51;;;;;;;19.20;4.30;;;;;;;3.33;100.00;100774.88;5443488;26;20495;-71
2024/04/17 03:07:16;;;;;;;13.40;4.45;;;;;;;3.31;100.00;100780.13;5399006;26;20010;-71
2024/04/17 03:09:43;;;;;;;12.10;3.90;;;;;;;3.31;100.00;100782.69;5403207;26;20002;-71
2024/04/17 03:12:09;;;;;;;20.58;4.30;;;;;;;3.29;100.00;100781.97;5445759;26;20015;-71
2024/04/17 03:14:34;;;;;;;17.13;4.28;;;;;;;3.29;100.00;100786.28;5400812;26;20715;-71
2024/04/17 03:17:00;;;;;;;14.85;4.53;;;;;;;3.26;100.00;100782.19;5404575;26;20011;-71
2024/04/17 03:19:26;;;;;;;13.73;4.70;;;;;;;3.22;100.00;100779.94;5442873;26;19999;-71
2024/04/17 03:21:52;;;;;;;19.73;5.05;;;;;;;3.21;100.00;100786.00;5408158;26;20019;-71
2024/04/17 03:24:18;;;;;;;19.75;4.47;;;;;;;3.19;100.00;100781.00;5400105;26;20011;-71
2024/04/17 03:26:48;;;;;;;18.75;4.88;;;;;;;3.20;100.00;100786.94;5410701;26;20011;-71
2024/04/17 03:29:14;;;;;;;22.77;5.43;;;;;;;3.20;100.00;100784.38;5405088;26;20007;-71
2024/04/17 03:31:40;;;;;;;12.93;5.13;;;;;;;3.17;100.00;100790.53;5442364;26;20018;-71
2024/04/17 03:34:06;;;;;;;23.30;4.97;;;;;;;3.14;100.00;100790.75;5435999;26;20014;-71
2024/04/17 03:36:32;;;;;;;17.90;5.13;;;;;;;3.14;100.00;100795.88;5436106;26;20011;-71
2024/04/17 03:38:58;;;;;;;20.10;4.47;;;;;;;3.09;100.00;100795.41;5406068;26;20010;-71
2024/04/17 03:41:24;;;;;;;18.10;5.18;;;;;;;3.06;100.00;100793.84;5410306;26;20031;-71
2024/04/17 03:43:50;;;;;;;15.02;5.25;;;;;;;3.11;100.00;100802.03;5448785;26;20002;-71
2024/04/17 03:46:16;;;;;;;23.10;5.53;;;;;;;3.14;100.00;100800.19;5414281;26;20080;-71
2024/04/17 03:48:42;;;;;;;16.27;6.03;;;;;;;3.06;100.00;100793.03;5442624;26;20014;-71
2024/04/17 03:51:08;;;;;;;15.05;5.55;;;;;;;3.06;100.00;100801.53;5407700;26;20006;-71
2024/04/17 03:53:34;;;;;;;19.75;3.88;;;;;;;3.05;100.00;100796.50;5441405;26;20692;-71
2024/04/17 03:56:00;;;;;;;11.82;4.50;;;;;;;3.03;100.00;100794.06;5439484;26;20049;-71
2024/04/17 03:58:26;;;;;;;15.68;4.53;;;;;;;2.99;100.00;100794.38;5438445;26;20008;-71
2024/04/17 04:00:52;;;;;;;14.02;4.30;;;;;;;3.01;100.00;100795.09;5436452;26;20006;-71
2024/04/17 04:03:18;;;;;;;20.17;4.78;;;;;;;3.00;100.00;100796.84;5413277;26;20473;-71
2024/04/17 04:05:44;;;;;;;11.60;4.20;;;;;;;2.97;100.00;100801.34;5412159;26;20011;-71
2024/04/17 04:08:11;;;;;;;17.20;4.90;;;;;;;2.94;100.00;100799.84;5441025;26;20054;-71
2024/04/17 04:10:37;;;;;;;12.70;5.10;;;;;;;2.93;100.00;100793.88;5435054;26;20039;-71
2024/04/17 04:13:03;;;;;;;11.27;4.15;;;;;;;2.92;100.00;100796.56;5435894;26;20018;-71
2024/04/17 04:15:29;;;;;;;10.93;5.38;;;;;;;2.91;100.00;100800.84;5435226;26;20006;-71
2024/04/17 04:17:55;;;;;;;20.90;6.65;;;;;;;2.93;100.00;100803.31;5444829;26;20373;-71
2024/04/17 04:20:21;;;;;;;16.38;5.95;;;;;;;2.88;100.00;100803.66;5441072;26;19998;-71
2024/04/17 04:22:47;;;;;;;20.70;5.93;;;;;;;2.94;100.00;100807.53;5405685;26;20018;-71
2024/04/17 04:25:13;;;;;;;14.68;6.22;;;;;;;2.95;100.00;100798.91;5404033;26;20004;-71
2024/04/17 04:27:38;;;;;;;26.00;5.28;;;;;;;2.95;100.00;100810.91;5429278;26;20003;-71
2024/04/17 04:30:05;;;;;;;24.10;7.05;;;;;;;2.92;100.00;100820.44;5437651;26;20089;-71
2024/04/17 04:32:31;;;;;;;20.42;5.35;;;;;;;2.90;100.00;100819.72;5447631;26;20044;-71
2024/04/17 04:34:57;;;;;;;21.75;6.60;;;;;;;2.90;100.00;100824.00;5427841;26;20007;-71
2024/04/17 04:37:24;;;;;;;27.63;6.80;;;;;;;2.95;100.00;100824.50;5447741;26;20026;-71
2024/04/17 04:39:50;;;;;;;21.98;6.60;;;;;;;2.89;100.00;100828.31;5399221;26;20007;-71
2024/04/17 04:42:16;;;;;;;18.67;6.32;;;;;;;2.91;100.00;100826.47;5441039;26;21507;-71
2024/04/17 04:44:42;;;;;;;24.83;8.25;;;;;;;2.91;100.00;100820.53;5409716;26;20009;-71
2024/04/17 04:47:08;;;;;;;22.52;7.25;;;;;;;2.91;100.00;100825.66;5438965;26;20018;-71
2024/04/17 04:49:34;;;;;;;29.08;8.30;;;;;;;2.89;100.00;100823.19;5406601;26;20018;-71
2024/04/17 04:52:00;;;;;;;27.98;7.55;;;;;;;2.92;100.00;100820.44;5441159;26;20015;-71
2024/04/17 04:54:26;;;;;;;24.52;6.63;;;;;;;2.90;100.00;100822.28;5404350;26;20007;-71
2024/04/17 04:56:52;;;;;;;23.67;8.48;;;;;;;3.06;100.00;100818.66;5440216;26;20018;-71
2024/04/17 04:59:18;;;;;;;20.50;6.63;;;;;;;3.03;100.00;100821.41;5434065;26;20368;-71
2024/04/17 05:01:45;;;;;;;18.27;6.75;;;;;;;3.06;100.00;100816.91;5428796;26;20034;-71
2024/04/17 05:04:11;;;;;;;30.05;8.90;;;;;;;3.05;100.00;100825.53;5440068;26;20015;-71
2024/04/17 05:06:37;;;;;;;24.25;7.88;;;;;;;3.12;100.00;100824.16;5409952;26;20350;-71
2024/04/17 05:09:03;;;;;;;29.73;7.68;;;;;;;3.09;100.00;100823.56;5408147;26;20022;-71
2024/04/17 05:11:29;;;;;;;24.83;8.07;;;;;;;3.10;100.00;100833.69;5433163;26;20007;-71
2024/04/17 05:13:55;;;;;;;19.88;7.78;;;;;;;3.18;100.00;100832.34;5406004;26;20080;-71
2024/04/17 05:16:21;;;;;;;22.75;7.93;;;;;;;3.16;100.00;100827.31;5441672;26;21585;-71
2024/04/17 05:18:47;;;;;;;24.92;8.38;;;;;;;3.20;100.00;100827.94;5411940;26;20604;-71
2024/04/17 05:21:13;;;;;;;23.60;8.23;;;;;;;3.22;100.00;100834.59;5442301;26;20007;-72
2024/04/17 05:23:39;;;;;;;24.73;7.75;;;;;;;3.34;100.00;100837.25;5440337;26;20014;-72
2024/04/17 05:26:05;;;;;;;24.35;8.70;;;;;;;3.37;100.00;100837.84;5437982;26;20331;-71
2024/04/17 05:28:31;;;;;;;27.63;8.07;;;;;;;3.41;100.00;100828.16;5418254;26;20031;-72
2024/04/17 05:30:58;;;;;;;25.23;7.65;;;;;;;3.51;100.00;100829.97;5443484;26;20002;-71
2024/04/17 05:33:24;;;;;;;29.23;9.18;;;;;;;3.49;100.00;100825.88;5384289;26;20014;-72
2024/04/17 05:35:50;;;;;;;22.67;8.18;;;;;;;3.61;100.00;100837.00;5443214;26;20003;-71
2024/04/17 05:38:16;;;;;;;29.40;8.10;;;;;;;3.57;100.00;100835.59;5447883;26;20430;-71
2024/04/17 05:40:46;;;;;;;20.20;8.02;;;;;;;3.58;100.00;100830.38;5437690;26;20015;-72
2024/04/17 05:43:14;;;;;;;23.63;7.72;;;;;;;3.63;100.00;100828.25;5404765;26;20461;-71
2024/04/17 05:45:40;;;;;;;27.25;7.00;;;;;;;3.67;100.00;100834.00;5443702;26;20562;-71
2024/04/17 05:48:06;;;;;;;23.45;7.88;;;;;;;3.82;100.00;100832.06;5440733;26;20022;-71
2024/04/17 05:50:32;;;;;;;17.08;7.57;;;;;;;3.86;100.00;100829.19;5442310;26;20015;-71
2024/04/17 05:52:58;;;;;;;21.85;7.80;;;;;;;4.06;100.00;100830.28;5413593;26;20007;-72
2024/04/17 05:55:25;;;;;;;22.30;7.90;;;;;;;4.03;100.00;100830.53;5440654;26;20010;-72
2024/04/17 05:57:51;;;;;;;31.02;8.98;;;;;;;4.13;100.00;100843.50;5437237;26;20047;-71
2024/04/17 06:00:19;;;;;;;24.30;7.10;;;;;;;4.22;100.00;100844.53;5442535;26;20632;-71
2024/04/17 06:02:45;;;;;;;24.52;8.30;;;;;;;4.21;100.00;100841.16;5409156;26;20083;-71
2024/04/17 06:05:11;;;;;;;23.85;8.15;;;;;;;4.22;100.00;100844.53;5449502;26;20011;-70
2024/04/17 06:07:40;;;;;;;25.40;7.75;;;;;;;4.31;100.00;100850.75;5414014;26;20003;-71
2024/04/17 06:10:07;;;;;;;18.55;7.18;;;;;;;4.35;100.00;100844.47;5443894;26;20047;-71
2024/04/17 06:12:32;;;;;;;20.40;7.78;;;;;;;4.39;100.00;100844.13;5413709;26;20006;-71
2024/04/17 06:14:58;;;;;;;22.52;6.72;;;;;;;4.31;100.00;100843.06;5440406;26;20011;-71
2024/04/17 06:17:25;;;;;;;23.58;7.88;;;;;;;4.45;100.00;100848.81;5441194;26;20014;-71
2024/04/17 06:19:52;;;;;;;28.60;11.18;;;;;;;4.42;100.00;100848.22;5437603;26;20003;-71
2024/04/17 06:22:19;;;;;;;34.40;17.65;;;;;;;4.43;100.00;100855.81;5410388;26;20007;-71
2024/04/17 06:24:45;;;;;;;18.30;6.68;;;;;;;4.48;100.00;100847.75;5442293;26;20022;-71
2024/04/17 06:27:11;;;;;;;14.15;4.88;;;;;;;4.38;100.00;100849.38;5412872;26;20003;-70
2024/04/17 06:29:37;;;;;;;12.30;4.45;;;;;;;4.52;100.00;100844.03;5440681;26;20018;-71
2024/04/17 06:32:03;;;;;;;11.77;4.38;;;;;;;4.55;100.00;100853.25;5440743;26;20002;-70
2024/04/17 06:34:30;;;;;;;7.47;4.38;;;;;;;4.52;100.00;100845.75;5442609;26;20054;-70
2024/04/17 06:36:56;;;;;;;14.23;4.25;;;;;;;4.61;100.00;100855.34;5385798;26;20014;-71
2024/04/17 06:39:22;;;;;;;11.55;4.20;;;;;;;4.51;100.00;100846.72;5440606;26;20047;-71
2024/04/17 06:41:48;;;;;;;10.18;3.90;;;;;;;4.50;100.00;100853.56;5439158;26;19999;-72
2024/04/17 06:44:16;;;;;;;9.43;3.88;;;;;;;4.49;100.00;100852.75;5412483;26;20672;-73
2024/04/17 06:46:42;;;;;;;11.63;4.70;;;;;;;4.52;100.00;100858.59;5446161;26;20004;-72
2024/04/17 06:49:09;;;;;;;13.65;4.53;;;;;;;4.41;100.00;100851.72;5440490;26;20025;-73
2024/04/17 06:51:35;;;;;;;8.27;3.75;;;;;;;4.36;100.00;100846.91;5413285;26;20011;-72
2024/04/17 06:54:01;;;;;;;15.57;4.25;;;;;;;4.31;100.00;100851.56;5438194;26;20015;-72
2024/04/17 06:56:28;;;;;;;9.27;2.88;;;;;;;4.42;100.00;100851.59;5437020;26;20022;-72
2024/04/17 06:58:55;;;;;;;8.70;3.65;;;;;;;4.34;100.00;100847.97;5442233;26;20484;-72
2024/04/17 07:01:21;;;;;;;7.80;3.33;;;;;;;4.37;100.00;100848.56;5386369;26;20771;-72
2024/04/17 07:03:47;;;;;;;11.65;3.97;;;;;;;4.39;100.00;100851.00;5433248;26;20084;-72
2024/04/17 07:06:13;;;;;;;12.23;3.70;;;;;;;4.49;100.00;100857.91;5408515;26;20003;-72
2024/04/17 07:08:39;;;;;;;10.23;4.13;;;;;;;4.49;100.00;100846.81;5415343;26;20042;-73
2024/04/17 07:11:05;;;;;;;12.48;3.83;;;;;;;4.60;100.00;100844.25;5412843;26;19999;-72
2024/04/17 07:13:31;;;;;;;13.23;4.10;;;;;;;4.74;100.00;100844.97;5444393;26;20007;-72
2024/04/17 07:15:57;;;;;;;10.85;4.03;;;;;;;4.93;100.00;100849.50;5443595;26;20003;-72
2024/04/17 07:18:27;;;;;;;13.35;4.40;;;;;;;5.14;100.00;100847.03;5436828;26;20007;-72
2024/04/17 07:20:53;;;;;;;8.38;3.28;;;;;;;5.32;100.00;100840.44;5405949;26;20023;-72
2024/04/17 07:23:19;;;;;;;7.80;3.00;;;;;;;5.32;100.00;100842.22;5445372;26;20003;-73
2024/04/17 07:25:45;;;;;;;9.43;3.08;;;;;;;5.33;100.00;100838.69;5441061;26;20368;-72
2024/04/17 07:28:11;;;;;;;12.75;2.70;;;;;;;5.32;100.00;100839.66;5399990;26;20023;-71
2024/04/17 07:30:39;;;;;;;4.82;2.00;;;;;;;5.37;100.00;100830.63;5442462;26;20003;-73
2024/04/17 07:33:05;;;;;;;3.70;1.52;;;;;;;5.38;100.00;100836.59;5444270;26;20007;-72
2024/04/17 07:35:31;;;;;;;6.75;2.28;;;;;;;5.32;100.00;100842.22;5441159;26;20007;-72
2024/04/17 07:37:57;;;;;;;12.48;3.05;;;;;;;5.39;100.00;100848.53;5411580;26;20026;-72
2024/04/17 07:40:23;;;;;;;7.28;1.90;;;;;;;5.42;100.00;100850.81;5411194;26;20372;-72
2024/04/17 07:42:49;;;;;;;10.45;1.90;;;;;;;5.57;100.00;100848.81;5407706;26;20028;-72
2024/04/17 07:45:16;;;;;;;10.68;1.80;;;;;;;5.47;100.00;100853.88;5441814;26;20524;-72
2024/04/17 07:47:42;;;;;;;7.05;1.90;;;;;;;5.47;100.00;100849.53;5411519;26;20050;-72
2024/04/17 07:50:08;;;;;;;6.95;2.00;;;;;;;5.46;100.00;100852.22;5409342;26;20105;-72
2024/04/17 07:52:35;;;;;;;7.50;2.20;;;;;;;5.48;100.00;100847.75;5405332;26;20021;-72
2024/04/17 07:55:01;;;;;;;9.10;2.00;;;;;;;5.52;100.00;100849.19;5445701;26;20330;-72
2024/04/17 07:57:27;;;;;;;13.40;2.33;;;;;;;5.57;100.00;100849.59;5412896;26;20018;-72
2024/04/17 07:59:53;;;;;;;13.05;2.17;;;;;;;5.51;100.00;100850.09;5442295;26;20014;-72
2024/04/17 08:02:19;;;;;;;14.40;2.83;;;;;;;5.70;100.00;100848.66;5408341;26;20029;-72
2024/04/17 08:04:45;;;;;;;14.70;3.08;;;;;;;5.65;100.00;100846.41;5439184;26;20365;-72
2024/04/17 08:07:12;;;;;;;9.35;3.03;;;;;;;5.56;100.00;100848.00;5440427;26;20007;-72
2024/04/17 08:09:39;;;;;;;10.15;2.97;;;;;;;5.63;100.00;100851.72;5408544;26;20018;-72
2024/04/17 08:12:05;;;;;;;14.05;3.80;;;;;;;5.65;100.00;100843.84;5408511;26;20415;-72
2024/04/17 08:14:31;;;;;;;11.75;3.38;;;;;;;5.56;100.00;100850.56;5440732;26;20081;-72
2024/04/17 08:16:57;;;;;;;23.73;3.67;;;;;;;5.47;100.00;100846.94;5444809;26;20007;-72
2024/04/17 08:19:23;;;;;;;9.18;3.13;;;;;;;5.47;100.00;100846.16;5383454;26;20372;-71
2024/04/17 08:21:49;;;;;;;7.82;3.70;;;;;;;5.60;100.00;100843.41;5437489;26;20010;-71
2024/04/17 08:24:15;;;;;;;7.80;3.10;;;;;;;5.55;100.00;100840.38;5411233;26;20014;-72
2024/04/17 08:26:41;;;;;;;12.00;3.83;;;;;;;5.54;100.00;100849.03;5408412;26;20020;-72
2024/04/17 08:29:07;;;;;;;12.05;3.88;;;;;;;5.53;100.00;100844.84;5440100;26;20343;-72
2024/04/17 08:31:33;;;;;;;8.20;3.40;;;;;;;5.53;100.00;100850.78;5440106;26;20067;-71
2024/04/17 08:33:59;;;;;;;12.52;3.80;;;;;;;5.64;100.00;100847.38;5408079;26;20003;-72
2024/04/17 08:36:25;;;;;;;10.50;3.15;;;;;;;5.60;100.00;100846.81;5381222;26;20014;-72
2024/04/17 08:38:55;;;;;;;10.18;3.28;;;;;;;5.63;100.00;100848.31;5437886;26;20338;-71
2024/04/17 08:41:27;;;;;;;11.85;4.57;;;;;;;5.71;100.00;100850.25;5431086;26;20048;-71
2024/04/17 08:43:58;;;;;;;9.60;4.15;;;;;;;5.71;100.00;100851.09;5442975;26;20017;-71
2024/04/17 08:46:24;;;;;;;8.63;3.95;;;;;;;5.75;100.00;100852.47;5410357;26;20003;-71
2024/04/17 08:48:51;;;;;;;9.98;4.63;;;;;;;5.93;100.00;100849.34;5411584;26;20076;-71
2024/04/17 08:51:18;;;;;;;16.65;5.70;;;;;;;6.09;100.00;100847.22;5433916;26;20007;-71
2024/04/17 08:53:44;;;;;;;11.68;4.45;;;;;;;6.22;100.00;100847.03;5404728;26;19991;-71
2024/04/17 08:56:11;;;;;;;12.27;5.72;;;;;;;6.34;100.00;100848.56;5438784;26;20015;-71
2024/04/17 08:58:37;;;;;;;10.32;4.43;;;;;;;6.55;100.00;100843.38;5438154;26;20083;-71
2024/04/17 09:01:04;;;;;;;17.92;4.50;;;;;;;6.61;100.00;100849.78;5432781;26;20006;-71
2024/04/17 09:03:33;;;;;;;12.57;4.55;;;;;;;6.89;100.00;100845.69;5445392;26;20003;-71
2024/04/17 09:06:00;;;;;;;12.57;3.80;;;;;;;6.89;100.00;100850.84;5440776;26;20087;-71
2024/04/17 09:08:26;;;;;;;19.75;4.80;;;;;;;6.79;100.00;100848.22;5409723;26;20011;-71
2024/04/17 09:10:54;;;;;;;9.93;4.38;;;;;;;6.90;100.00;100843.94;5435830;26;20019;-71
2024/04/17 09:13:20;;;;;;;10.57;4.32;;;;;;;6.85;100.00;100843.50;5441721;26;20010;-71
2024/04/17 09:15:47;;;;;;;17.20;4.75;;;;;;;6.98;100.00;100846.69;5443825;26;20011;-71
2024/04/17 09:18:13;;;;;;;12.40;4.60;;;;;;;7.08;100.00;100838.97;5444009;26;20026;-71
2024/04/17 09:20:39;;;;;;;16.23;4.07;;;;;;;7.02;100.00;100843.69;5410894;26;20334;-71
2024/04/17 09:23:11;;;;;;;12.35;3.83;;;;;;;6.99;100.00;100838.81;5409904;26;20007;-71
2024/04/17 09:25:37;;;;;;;12.57;3.63;;;;;;;6.96;100.00;100835.69;5433335;26;20376;-71
2024/04/17 09:28:03;;;;;;;6.93;2.30;;;;;;;7.32;100.00;100839.41;5412505;26;20508;-71
2024/04/17 09:30:29;;;;;;;8.70;2.30;;;;;;;7.40;100.00;100831.84;5416431;26;20068;-71
2024/04/17 09:32:55;;;;;;;8.15;2.00;;;;;;;7.22;100.00;100841.19;5442561;26;20016;-71
2024/04/17 09:35:23;;;;;;;9.02;1.98;;;;;;;7.04;100.00;100843.56;5444352;26;22444;-71
2024/04/17 09:37:49;;;;;;;9.48;1.77;;;;;;;6.94;100.00;100842.72;5439151;26;20007;-72
2024/04/17 09:40:15;;;;;;;6.10;2.05;;;;;;;6.93;100.00;100851.41;5443321;26;20015;-71
2024/04/17 09:42:42;;;;;;;8.80;2.03;;;;;;;6.97;100.00;100845.06;5411614;26;20017;-71
2024/04/17 09:45:15;;;;;;;6.65;2.03;;;;;;;6.88;100.00;100841.50;5439024;26;20025;-71
2024/04/17 09:47:44;;;;;;;8.88;2.08;;;;;;;6.96;100.00;100840.84;5406978;26;20075;-71
2024/04/17 09:50:17;;;;;;;11.27;2.13;;;;;;;7.14;100.00;100835.84;5440470;26;20088;-71
2024/04/17 09:52:43;;;;;;;;;;;;;;;7.62;100.00;100831.72;5437004;26;20022;-71
2024/04/17 09:55:09;;;;;;;12.10;2.33;;;;;;;8.36;98.94;100828.47;5440181;26;20255;-71
2024/04/17 09:57:35;;;;;;;12.25;2.55;;;;;;;8.68;93.88;100820.38;5409758;26;20465;-72
2024/04/17 10:00:04;;;;;;;10.90;3.17;;;;;;;9.06;98.37;100826.31;5435864;26;20068;-72
2024/04/17 10:02:31;;;;;;;7.82;2.40;;;;;;;9.39;94.08;100815.47;5442881;26;20407;-71
2024/04/17 10:04:59;;;;;;;8.70;2.42;;;;;;;9.28;94.19;100816.47;5379030;26;20051;-72
2024/04/17 10:07:27;;;;;;;9.90;2.30;;;;;;;9.28;91.72;100814.69;5409754;26;20045;-71
2024/04/17 10:09:55;;;;;;;9.73;2.13;;;;;;;9.13;88.62;100822.16;5441719;26;20015;-72
2024/04/17 10:12:22;;;;;;;8.45;2.38;;;;;;;8.88;89.33;100818.50;5438428;26;20010;-71
2024/04/17 10:14:50;;;;;;;6.00;2.17;;;;;;;9.04;87.87;100827.38;5438376;26;20018;-71
2024/04/17 10:17:16;;;;;;;11.63;2.30;;;;;;;9.32;82.51;100826.41;5436481;26;20046;-72
2024/04/17 10:19:51;;;;;;;7.63;2.35;;;;;;;9.87;82.88;100817.66;5440381;26;20023;-72
2024/04/17 10:22:17;;;;;;;9.98;2.30;;;;;;;10.22;80.53;100812.53;5411064;26;20014;-71
2024/04/17 10:24:44;;;;;;;8.13;2.08;;;;;;;10.50;83.98;100801.03;5435630;26;20013;-71
2024/04/17 10:27:16;;;;;;;7.20;1.83;;;;;;;10.99;84.08;100799.59;5438688;26;20019;-71
2024/04/17 10:29:43;;;;;;;7.35;1.75;;;;;;;10.85;73.20;100799.22;5435881;26;20009;-71
2024/04/17 10:32:13;;;;;;;9.80;1.67;;;;;;;11.06;77.29;100801.38;5429008;26;20008;-71
2024/04/17 10:34:46;;;;;;;8.85;1.77;;;;;;;10.67;75.25;100799.31;5440151;26;19999;-71
2024/04/17 10:37:16;;;;;;;7.90;1.70;;;;;;;10.25;72.97;100804.44;5432261;26;20000;-72
2024/04/17 10:39:43;;;;;;;8.45;1.88;;;;;;;10.29;74.54;100801.38;5378701;26;20029;-71
2024/04/17 10:42:09;;;;;;;9.93;1.90;;;;;;;10.24;77.79;100795.84;5437586;26;20074;-71
2024/04/17 10:44:43;;;;;;;13.18;1.80;;;;;;;9.94;74.19;100789.34;5403403;26;20092;-71
2024/04/17 10:47:20;;;;;;;6.18;1.50;;;;;;;9.96;74.43;100784.81;5438569;26;20014;-71
2024/04/17 10:49:57;;;;;;;6.72;1.40;;;;;;;10.14;73.81;100780.41;5404725;26;20623;-71
2024/04/17 10:52:25;;;;;;;8.15;1.45;;;;;;;10.54;68.46;100780.78;5440717;26;20341;-71
2024/04/17 10:54:54;;;;;;;6.90;1.40;;;;;;;10.95;66.48;100774.94;5438778;26;20010;-71
2024/04/17 10:57:20;;;;;;;10.00;1.35;;;;;;;11.34;65.51;100767.38;5435745;26;20055;-71
2024/04/17 10:59:50;;;;;;;11.52;1.52;;;;;;;11.35;67.22;100766.38;5441428;26;20029;-71
2024/04/17 11:02:16;;;;;;;10.80;1.50;;;;;;;11.15;67.80;100773.69;5424652;26;20003;-71
2024/04/17 11:04:43;;;;;;;10.60;1.90;;;;;;;10.96;67.33;100774.75;5403770;26;20428;-71
2024/04/17 11:07:10;;;;;;;5.97;1.65;;;;;;;10.90;69.93;100765.03;5441947;26;20010;-71
2024/04/17 11:09:36;;;;;;;11.18;1.70;;;;;;;10.76;64.56;100770.84;5401308;26;20145;-71
2024/04/17 11:12:03;;;;;;;11.60;1.52;;;;;;;11.03;65.11;100764.56;5399055;26;20052;-72
2024/04/17 11:14:29;;;;;;;4.28;1.13;;;;;;;11.22;63.60;100753.06;5435602;26;20011;-71
2024/04/17 11:16:56;;;;;;;7.43;1.83;;;;;;;11.55;65.28;100756.50;5414448;26;20007;-71